createdAt,value
2022-12-11T00:02:45.992Z,99546.19
2022-12-11T00:07:47.700Z,99546.56
2022-12-11T00:12:49.472Z,99547.78
2022-12-11T00:17:51.099Z,99549.44
2022-12-11T00:22:52.921Z,99551.75
2022-12-11T00:27:54.526Z,99551.31
2022-12-11T00:32:56.080Z,99553.22
2022-12-11T00:37:57.657Z,99556.72
2022-12-11T00:42:59.227Z,99555.47
2022-12-11T00:48:00.863Z,99557.28
2022-12-11T00:53:04.643Z,99556.00
2022-12-11T00:58:06.551Z,99551.81
2022-12-11T01:03:09.458Z,99555.38
2022-12-11T01:08:11.127Z,99556.44
2022-12-11T01:13:12.801Z,99557.16
2022-12-11T01:18:15.559Z,99566.97
2022-12-11T01:23:17.605Z,99558.97
2022-12-11T01:28:19.139Z,99568.03
2022-12-11T01:33:20.680Z,99565.81
2022-12-11T01:38:22.354Z,99568.22
2022-12-11T01:43:23.897Z,99559.38
2022-12-11T01:48:28.529Z,99571.72
2022-12-11T01:53:35.492Z,99565.09
2022-12-11T01:58:52.553Z,99561.38
2022-12-11T02:03:55.910Z,99568.88
2022-12-11T02:08:57.728Z,99564.03
2022-12-11T02:14:06.170Z,99559.06
2022-12-11T02:19:21.915Z,99557.69
2022-12-11T02:24:23.462Z,99548.84
2022-12-11T02:29:48.020Z,99557.28
2022-12-11T02:34:56.215Z,99554.13
2022-12-11T02:39:58.105Z,99554.66
2022-12-11T02:45:00.993Z,99551.81
2022-12-11T02:50:04.176Z,99556.75
2022-12-11T02:55:07.757Z,99559.28
2022-12-11T03:00:10.906Z,99553.81
2022-12-11T03:05:13.374Z,99553.81
2022-12-11T03:10:16.349Z,99554.72
2022-12-11T03:15:20.036Z,99553.59
2022-12-11T03:20:24.640Z,99553.91
2022-12-11T03:25:48.472Z,99560.63
2022-12-11T03:30:51.079Z,99560.44
2022-12-11T03:35:56.261Z,99554.31
2022-12-11T03:41:01.080Z,99568.47
2022-12-11T03:46:03.132Z,99559.81
2022-12-11T03:51:06.647Z,99569.50
2022-12-11T03:56:09.316Z,99572.44
2022-12-11T04:01:11.694Z,99561.31
2022-12-11T04:06:13.332Z,99564.88
2022-12-11T04:11:33.673Z,99564.44
2022-12-11T04:16:35.315Z,99564.88
2022-12-11T04:21:55.609Z,99572.25
2022-12-11T04:26:57.214Z,99568.88
2022-12-11T04:31:58.838Z,99575.41
2022-12-11T04:37:00.456Z,99573.41
2022-12-11T04:42:02.031Z,99562.88
2022-12-11T04:47:03.621Z,99560.31
2022-12-11T04:52:05.542Z,99556.00
2022-12-11T04:57:07.087Z,99556.63
2022-12-11T05:02:08.664Z,99562.88
2022-12-11T05:07:10.587Z,99545.72
2022-12-11T05:12:12.146Z,99542.09
2022-12-11T05:17:13.707Z,99538.34
2022-12-11T05:22:17.383Z,99525.22
2022-12-11T05:27:18.952Z,99535.97
2022-12-11T05:32:20.557Z,99527.94
2022-12-11T05:37:22.281Z,99536.84
2022-12-11T05:42:28.552Z,99532.69
2022-12-11T05:47:31.578Z,99527.09
2022-12-11T05:52:33.230Z,99523.78
2022-12-11T05:57:34.981Z,99518.72
2022-12-11T06:02:36.666Z,99526.09
2022-12-11T06:07:38.378Z,99524.84
2022-12-11T06:12:40.901Z,99523.13
2022-12-11T06:17:42.517Z,99532.06
2022-12-11T06:22:44.112Z,99528.63
2022-12-11T06:27:45.711Z,99533.47
2022-12-11T06:32:47.306Z,99530.31
2022-12-11T06:37:49.000Z,99529.78
2022-12-11T06:42:50.644Z,99538.22
2022-12-11T06:47:52.192Z,99537.28
2022-12-11T06:52:53.771Z,99535.22
2022-12-11T06:57:55.342Z,99544.63
2022-12-11T07:02:56.938Z,99550.00
2022-12-11T07:07:58.599Z,99556.44
2022-12-11T07:13:00.211Z,99557.47
2022-12-11T07:18:01.741Z,99564.66
2022-12-11T07:23:03.493Z,99569.28
2022-12-11T07:28:05.086Z,99561.50
2022-12-11T07:33:06.613Z,99561.50
2022-12-11T07:38:08.230Z,99566.13
2022-12-11T07:43:09.760Z,99572.97
2022-12-11T07:48:12.722Z,99572.03
2022-12-11T07:53:14.425Z,99574.47
2022-12-11T07:58:16.299Z,99574.56
2022-12-11T08:03:17.844Z,99582.94
2022-12-11T08:08:19.902Z,99587.91
2022-12-11T08:13:21.513Z,99587.41
2022-12-11T08:18:23.079Z,99585.22
2022-12-11T08:23:24.670Z,99578.34
2022-12-11T08:28:27.371Z,99581.09
2022-12-11T08:33:29.100Z,99579.78
2022-12-11T08:38:31.327Z,99579.97
2022-12-11T08:43:33.701Z,99574.34
2022-12-11T08:48:36.653Z,99568.69
2022-12-11T08:53:40.667Z,99567.88
2022-12-11T08:58:42.976Z,99563.69
2022-12-11T09:03:44.845Z,99579.03
2022-12-11T09:08:52.204Z,99572.22
2022-12-11T09:13:54.450Z,99579.16
2022-12-11T09:18:58.229Z,99585.81
2022-12-11T09:24:01.023Z,99583.56
2022-12-11T09:29:04.215Z,99573.94
2022-12-11T09:34:08.034Z,99570.66
2022-12-11T09:39:11.641Z,99566.22
2022-12-11T09:44:22.956Z,99566.13
2022-12-11T09:49:32.189Z,99560.41
2022-12-11T09:54:33.903Z,99569.38
2022-12-11T09:59:45.711Z,99564.13
2022-12-11T10:04:53.962Z,99564.22
2022-12-11T10:10:10.806Z,99554.13
2022-12-11T10:15:43.039Z,99556.41
2022-12-11T10:20:45.273Z,99543.59
2022-12-11T10:26:05.390Z,99530.47
2022-12-11T10:31:18.526Z,99526.94
2022-12-11T10:36:28.508Z,99526.28
2022-12-11T10:41:41.950Z,99538.09
2022-12-11T10:46:44.075Z,99536.16
2022-12-11T10:51:45.761Z,99522.84
2022-12-11T10:56:48.525Z,99524.47
2022-12-11T11:01:50.466Z,99522.00
2022-12-11T11:07:12.486Z,99515.59
2022-12-11T11:12:22.744Z,99511.97
2022-12-11T11:17:24.316Z,99503.22
2022-12-11T11:22:26.687Z,99489.66
2022-12-11T11:27:37.043Z,99495.38
2022-12-11T11:32:39.957Z,99497.03
2022-12-11T11:37:44.942Z,99490.97
2022-12-11T11:42:57.156Z,99487.22
2022-12-11T11:48:22.589Z,99476.41
2022-12-11T11:53:38.000Z,99473.53
2022-12-11T11:58:44.447Z,99464.63
2022-12-11T12:03:47.148Z,99462.81
2022-12-11T12:09:17.824Z,99464.50
2022-12-11T12:19:55.382Z,99450.81
2022-12-11T12:25:14.637Z,99450.34
2022-12-11T12:30:22.428Z,99457.75
2022-12-11T12:35:32.584Z,99452.34
2022-12-11T12:41:00.318Z,99446.53
2022-12-11T12:46:28.107Z,99441.78
2022-12-11T12:51:30.196Z,99445.63
2022-12-11T12:56:32.840Z,99441.03
2022-12-11T13:01:34.502Z,99426.56
2022-12-11T13:06:38.708Z,99428.53
2022-12-11T13:11:40.382Z,99434.47
2022-12-11T13:16:43.444Z,99425.91
2022-12-11T13:21:58.446Z,99425.00
2022-12-11T13:27:11.006Z,99423.53
2022-12-11T13:32:18.521Z,99427.28
2022-12-11T13:37:39.577Z,99425.50
2022-12-11T13:42:47.643Z,99428.59
2022-12-11T13:47:49.525Z,99431.53
2022-12-11T13:52:55.414Z,99437.75
2022-12-11T13:57:57.205Z,99442.06
2022-12-11T14:03:02.345Z,99437.94
2022-12-11T14:08:10.337Z,99427.03
2022-12-11T14:13:22.255Z,99434.84
2022-12-11T14:18:26.348Z,99440.34
2022-12-11T14:23:30.603Z,99441.41
2022-12-11T14:28:41.273Z,99445.41
2022-12-11T14:33:51.481Z,99438.03
2022-12-11T14:38:56.488Z,99440.88
2022-12-11T14:44:00.293Z,99447.97
2022-12-11T14:49:06.432Z,99448.72
2022-12-11T14:54:20.163Z,99453.56
2022-12-11T14:59:26.987Z,99449.66
2022-12-11T15:04:33.131Z,99461.84
2022-12-11T15:09:35.598Z,99457.88
2022-12-11T15:14:42.858Z,99460.34
2022-12-11T15:19:51.096Z,99464.41
2022-12-11T15:24:53.994Z,99459.56
2022-12-11T15:29:56.779Z,99455.78
2022-12-11T15:34:59.887Z,99458.50
2022-12-11T15:40:02.378Z,99460.81
2022-12-11T15:45:07.660Z,99450.06
2022-12-11T15:50:18.992Z,99447.09
2022-12-11T15:55:22.331Z,99456.50
2022-12-11T16:00:24.516Z,99460.50
2022-12-11T16:05:26.861Z,99461.34
2022-12-11T16:10:28.416Z,99465.00
2022-12-11T16:15:30.115Z,99469.56
2022-12-11T16:20:32.097Z,99468.19
2022-12-11T16:25:34.163Z,99472.94
2022-12-11T16:30:37.111Z,99472.53
2022-12-11T16:35:38.767Z,99472.19
2022-12-11T16:40:41.448Z,99469.22
2022-12-11T16:45:44.121Z,99458.72
2022-12-11T16:50:45.779Z,99462.06
2022-12-11T16:55:47.383Z,99460.19
2022-12-11T17:00:49.519Z,99464.19
2022-12-11T17:05:51.344Z,99469.44
2022-12-11T17:10:53.055Z,99470.06
2022-12-11T17:15:54.600Z,99468.41
2022-12-11T17:20:56.170Z,99474.69
2022-12-11T17:25:57.768Z,99473.78
2022-12-11T17:30:59.451Z,99472.53
2022-12-11T17:36:02.391Z,99470.31
2022-12-11T17:41:07.989Z,99469.88
2022-12-11T17:46:12.661Z,99467.97
2022-12-11T17:51:20.997Z,99472.72
2022-12-11T17:56:23.940Z,99480.41
2022-12-11T18:01:25.580Z,99469.00
2022-12-11T18:06:28.199Z,99473.03
2022-12-11T18:11:30.675Z,99468.84
2022-12-11T18:16:35.101Z,99470.72
2022-12-11T18:21:40.576Z,99473.47
2022-12-11T18:26:45.101Z,99471.31
2022-12-11T18:31:46.744Z,99472.81
2022-12-11T18:36:48.347Z,99475.84
2022-12-11T18:42:03.475Z,99477.03
2022-12-11T18:47:11.749Z,99473.03
2022-12-11T18:52:14.570Z,99472.50
2022-12-11T18:57:16.173Z,99458.91
2022-12-11T19:02:17.812Z,99456.28
2022-12-11T19:07:19.414Z,99455.34
2022-12-11T19:12:21.047Z,99457.84
2022-12-11T19:17:22.597Z,99449.69
2022-12-11T19:22:24.195Z,99453.75
2022-12-11T19:27:25.866Z,99460.81
2022-12-11T19:32:30.816Z,99452.59
2022-12-11T19:37:36.320Z,99462.59
2022-12-11T19:42:39.025Z,99462.69
2022-12-11T19:47:40.616Z,99455.78
2022-12-11T19:52:46.132Z,99457.34
2022-12-11T19:57:48.220Z,99454.72
2022-12-11T20:02:49.786Z,99460.59
2022-12-11T20:07:52.066Z,99458.28
2022-12-11T20:12:56.547Z,99452.59
2022-12-11T20:17:59.421Z,99453.56
2022-12-11T20:23:00.965Z,99455.75
2022-12-11T20:28:02.602Z,99454.31
2022-12-11T20:33:09.174Z,99453.03
2022-12-11T20:38:10.814Z,99454.31
2022-12-11T20:43:12.405Z,99450.59
2022-12-11T20:48:14.428Z,99447.97
2022-12-11T20:53:16.031Z,99453.03
2022-12-11T20:58:17.812Z,99463.75
2022-12-11T21:03:19.458Z,99456.81
2022-12-11T21:08:21.070Z,99439.88
2022-12-11T21:13:22.898Z,99446.91
2022-12-11T21:18:24.463Z,99437.13
2022-12-11T21:23:26.332Z,99437.84
2022-12-11T21:28:33.517Z,99450.81
2022-12-11T21:33:37.009Z,99438.19
2022-12-11T21:38:39.696Z,99440.38
2022-12-11T21:44:00.436Z,99432.41
2022-12-11T21:49:04.092Z,99431.97
2022-12-11T21:54:07.451Z,99426.91
2022-12-11T21:59:09.117Z,99417.63
2022-12-11T22:04:11.929Z,99418.50
2022-12-11T22:09:15.245Z,99425.00
2022-12-11T22:14:17.482Z,99424.81
2022-12-11T22:19:19.060Z,99429.00
2022-12-11T22:24:20.619Z,99432.63
2022-12-11T22:29:22.191Z,99421.34
2022-12-11T22:34:23.891Z,99411.53
2022-12-11T22:39:25.534Z,99421.03
2022-12-11T22:44:27.152Z,99423.13
2022-12-11T22:49:28.715Z,99418.69
2022-12-11T22:54:30.629Z,99429.00
2022-12-11T22:59:33.072Z,99426.06
2022-12-11T23:04:34.648Z,99425.03
2022-12-11T23:09:36.238Z,99428.16
2022-12-11T23:14:39.191Z,99429.41
2022-12-11T23:19:41.080Z,99430.19
2022-12-11T23:24:42.723Z,99442.16
2022-12-11T23:29:44.348Z,99441.06
2022-12-11T23:34:45.889Z,99442.91
2022-12-11T23:39:47.580Z,99435.56
2022-12-11T23:44:49.134Z,99433.97
2022-12-11T23:49:50.795Z,99430.69
2022-12-11T23:54:55.331Z,99431.13
2022-12-11T23:59:57.835Z,99436.19
